KTYR/TYR METAR and TAF weather

Enter ICAO airport designator
Station Type Date Time Source
KTYR METAR 2019/10/15 21:53 UTC NOAA

KTYR 152153Z 26005KT 10SM CLR 24/22 A2984 RMK AO2 RAB16E37 SLP098 P0001 T02390222


Station Type Date Time Source
KTYR Decoded METAR 2019/10/15 21:53 UTC NOAA

TYLER POUNDS FIELDS, TX, United States (KTYR) 32-21N 095-24W 165M
Oct 15, 2019 - 05:53 PM EDT / 2019.10.15 2153 UTC
Wind: from the W (260 degrees) at 6 MPH (5 KT):0
Visibility: 10 mile(s):0
Sky conditions: clear
Precipitation last hour: 0.01 inches
Temperature: 75.0 F (23.9 C)
Dew Point: 72.0 F (22.2 C)
Relative Humidity: 90%
Pressure (altimeter): 29.84 in. Hg (1010 hPa)
ob: KTYR 152153Z 26005KT 10SM CLR 24/22 A2984 RMK AO2 RAB16E37 SLP098 P0001 T02390222
cycle: 22

Station Type Date Time Source
KTYR TAF 2019/10/15 19:03 UTC NOAA

TAF
AMD KTYR 151900Z 1519/1618 22008KT P6SM VCTS SCT023CB BKN080
TEMPO 1519/1521 VRB10G25KT 1SM +TSRA BR BKN025CB
FM152100 23009KT P6SM VCTS BKN035CB
FM160100 32007KT P6SM VCTS OVC040CB
FM160600 35015KT 6SM BR VCSH OVC015
FM161000 02013G19KT P6SM OVC025

Example: see airport list